createdAt,value
2018-03-27T00:01:05.078Z,13.09
2018-03-27T00:06:55.711Z,11.99
2018-03-27T00:12:46.285Z,12.61
2018-03-27T00:18:36.960Z,13.66
2018-03-27T00:24:27.592Z,12.37
2018-03-27T00:30:18.218Z,11.9
2018-03-27T00:36:08.890Z,14.2
2018-03-27T00:41:59.513Z,12.95
2018-03-27T00:47:50.186Z,11.85
2018-03-27T00:53:40.846Z,14.23
2018-03-27T00:59:31.510Z,14.25
2018-03-27T01:05:22.214Z,18.26
2018-03-27T01:11:12.732Z,16.61
2018-03-27T01:17:03.405Z,15.38
2018-03-27T01:22:54.067Z,18.21
2018-03-27T01:28:44.680Z,17.15
2018-03-27T01:34:35.350Z,20.1
2018-03-27T01:40:25.955Z,17.53
2018-03-27T01:46:16.609Z,15.68
2018-03-27T01:52:07.244Z,20.67
2018-03-27T01:57:57.885Z,21.57
2018-03-27T02:03:48.513Z,19.18
2018-03-27T02:09:39.181Z,23.33
2018-03-27T02:15:29.800Z,18.94
2018-03-27T02:21:20.420Z,19.98
2018-03-27T02:27:11.076Z,18.33
2018-03-27T02:33:01.712Z,18.8
2018-03-27T02:38:52.394Z,15.76
2018-03-27T02:44:42.987Z,16.67
2018-03-27T02:50:33.626Z,17.12
2018-03-27T02:56:24.279Z,17.61
2018-03-27T03:02:14.899Z,16.6
2018-03-27T03:08:05.623Z,13.23
2018-03-27T03:13:56.257Z,21.51
2018-03-27T03:19:46.814Z,19
2018-03-27T03:25:37.454Z,16.39
2018-03-27T03:31:28.097Z,21.56
2018-03-27T03:37:18.776Z,17.8
2018-03-27T03:43:09.391Z,17.82
2018-03-27T03:49:00.034Z,20.94
2018-03-27T03:54:50.625Z,18.95
2018-03-27T04:00:41.292Z,16.65
2018-03-27T04:06:32.022Z,18.02
2018-03-27T04:12:22.629Z,21.29
2018-03-27T04:18:13.242Z,17.95
2018-03-27T04:24:03.847Z,21.18
2018-03-27T04:29:54.495Z,21.46
2018-03-27T04:35:45.157Z,18.13
2018-03-27T04:41:35.844Z,19.2
2018-03-27T04:47:26.384Z,18.95
2018-03-27T04:53:17.027Z,16.76
2018-03-27T04:59:07.662Z,21.18
2018-03-27T05:04:58.348Z,19.15
2018-03-27T05:10:48.919Z,21.61
2018-03-27T05:16:39.607Z,20.58
2018-03-27T05:22:30.241Z,23.46
2018-03-27T05:28:20.893Z,25.77
2018-03-27T05:34:11.488Z,21.94
2018-03-27T05:40:02.134Z,31.48
2018-03-27T05:45:52.771Z,31.95
2018-03-27T05:51:43.476Z,29.02
2018-03-27T05:57:34.090Z,30.51
2018-03-27T06:03:24.727Z,30.84
2018-03-27T06:09:15.366Z,31.43
2018-03-27T06:15:06.003Z,28.34
2018-03-27T06:20:56.677Z,30.11
2018-03-27T06:26:47.312Z,26.66
2018-03-27T06:32:37.969Z,27.88
2018-03-27T06:38:28.619Z,26.78
2018-03-27T06:44:19.258Z,31.43
2018-03-27T06:50:09.946Z,31.09
2018-03-27T06:56:00.614Z,37.22
2018-03-27T07:01:51.324Z,35.99
2018-03-27T07:07:42.027Z,38.74
2018-03-27T07:13:32.634Z,30.48
2018-03-27T07:19:23.332Z,32.24
2018-03-27T07:25:14.013Z,34.34
2018-03-27T07:31:04.665Z,76.66
2018-03-27T07:36:55.360Z,58.69
2018-03-27T07:42:46.060Z,51.64
2018-03-27T07:48:36.742Z,50.75
2018-03-27T07:54:27.487Z,46.82
2018-03-27T08:00:18.212Z,43.33
2018-03-27T08:06:08.907Z,44.26
2018-03-27T08:11:59.727Z,42.35
2018-03-27T09:33:06.198Z,29.74
2018-03-27T09:41:28.774Z,26.18
2018-03-27T09:47:19.569Z,26.17
2018-03-27T09:53:10.386Z,25.12
2018-03-27T09:59:01.195Z,28.8
2018-03-27T10:04:52.019Z,26.49
2018-03-27T10:10:42.845Z,26.3
2018-03-27T10:16:33.666Z,23.53
2018-03-27T10:22:24.543Z,27.5
2018-03-27T10:28:15.361Z,29.99
2018-03-27T10:34:06.168Z,31
2018-03-27T10:39:57.004Z,32.88
2018-03-27T10:45:47.856Z,30.8
2018-03-27T10:51:38.709Z,26.54
2018-03-27T10:57:29.542Z,31.04
2018-03-27T11:03:20.364Z,26.53
2018-03-27T11:09:11.263Z,26.9
2018-03-27T11:15:02.064Z,26.15
2018-03-27T11:20:52.959Z,24.45
2018-03-27T11:26:43.860Z,21.13
2018-03-27T11:32:34.686Z,19.91
2018-03-27T11:38:25.568Z,21.72
2018-03-27T11:44:16.382Z,21.52
2018-03-27T11:50:07.164Z,22.9
2018-03-27T13:49:32.817Z,25.55
2018-03-27T13:55:23.542Z,29.57
2018-03-27T14:01:14.380Z,31.72
2018-03-27T14:07:05.052Z,32.51
2018-03-27T14:12:55.806Z,27.5
2018-03-27T16:12:00.547Z,11.55
2018-03-27T16:17:51.260Z,13.64
2018-03-27T16:23:41.966Z,15.38
2018-03-27T16:29:32.658Z,12.83
2018-03-27T16:35:23.350Z,13.46
2018-03-27T16:41:14.089Z,13.63
2018-03-27T16:47:04.793Z,13.57
2018-03-27T16:52:55.518Z,13.04
2018-03-27T16:58:46.261Z,12.69
2018-03-27T17:04:36.962Z,13.62
2018-03-27T17:10:27.680Z,16.44
2018-03-27T17:16:18.367Z,18.77
2018-03-27T17:22:09.069Z,15.77
2018-03-27T17:27:59.777Z,16.06
2018-03-27T17:33:50.487Z,17.08
2018-03-27T17:39:41.186Z,15.94
2018-03-27T17:45:31.856Z,22.59
2018-03-27T17:51:22.612Z,19.35
2018-03-27T17:57:13.260Z,18.26
2018-03-27T18:03:03.982Z,17.56
2018-03-27T18:08:54.685Z,18.01
2018-03-27T18:14:45.446Z,22.71
2018-03-27T18:20:36.050Z,17.91
2018-03-27T18:26:26.762Z,16.35
2018-03-27T18:32:17.414Z,19.61
2018-03-27T18:38:08.090Z,20.89
2018-03-27T18:43:58.812Z,26.41
2018-03-27T18:49:49.445Z,22.29
2018-03-27T18:55:40.106Z,19.85
2018-03-27T19:01:30.735Z,20.01
2018-03-27T19:07:21.388Z,21.71
2018-03-27T19:13:12.072Z,20.42
2018-03-27T19:19:02.714Z,24.37
2018-03-27T19:24:53.405Z,22.43
2018-03-27T19:30:44.024Z,23.79
2018-03-27T19:36:34.701Z,20.54
2018-03-27T19:42:25.327Z,23.09
2018-03-27T19:48:16.025Z,24.15
2018-03-27T19:54:06.681Z,26.75
2018-03-27T19:59:57.297Z,28.6
2018-03-27T20:05:47.963Z,29.83
2018-03-27T20:11:38.624Z,29.68
2018-03-27T20:17:29.273Z,37.08
2018-03-27T20:23:19.935Z,33.24
2018-03-27T20:29:10.613Z,33.83
2018-03-27T20:35:01.320Z,33.35
2018-03-27T20:40:51.905Z,37.59
2018-03-27T20:46:42.572Z,29.83
2018-03-27T20:52:33.266Z,28.79
2018-03-27T20:58:23.869Z,26.95
2018-03-27T21:04:14.524Z,28.73
2018-03-27T21:10:05.189Z,27.37
2018-03-27T21:15:55.840Z,31.08
2018-03-27T21:21:46.537Z,20.9
2018-03-27T21:27:37.160Z,24.27
2018-03-27T21:33:27.793Z,27.57
2018-03-27T21:39:18.410Z,24.86
2018-03-27T21:45:09.075Z,24.31
2018-03-27T21:50:59.700Z,20.09
2018-03-27T21:56:50.349Z,23.77
2018-03-27T22:02:40.984Z,22.59
2018-03-27T22:08:31.744Z,24.36
2018-03-27T22:14:22.317Z,27.15
2018-03-27T22:20:12.953Z,22.27
2018-03-27T22:26:03.661Z,23.24
2018-03-27T22:31:54.252Z,24.37
2018-03-27T22:37:44.933Z,28.8
2018-03-27T22:43:35.637Z,30.3
2018-03-27T22:49:26.243Z,32.93
2018-03-27T22:55:16.939Z,30.59
2018-03-27T23:01:07.558Z,31.99
2018-03-27T23:06:58.275Z,31.93
2018-03-27T23:12:48.817Z,34.14
2018-03-27T23:18:39.530Z,35.67
2018-03-27T23:24:30.151Z,35.2
2018-03-27T23:30:20.764Z,39.34
2018-03-27T23:36:11.434Z,35.79
2018-03-27T23:42:02.051Z,38.84
2018-03-27T23:47:52.702Z,36.34
2018-03-27T23:53:43.330Z,37.87
2018-03-27T23:59:33.947Z,38.81
